createdAt,value
2023-05-15T00:00:48.323Z,9.20
2023-05-15T00:03:16.346Z,9.20
2023-05-15T00:05:43.648Z,9.20
2023-05-15T00:08:10.760Z,9.10
2023-05-15T00:10:39.328Z,9.00
2023-05-15T00:13:07.968Z,8.90
2023-05-15T00:15:35.095Z,8.90
2023-05-15T00:18:02.369Z,8.80
2023-05-15T00:20:29.570Z,8.80
2023-05-15T00:22:58.227Z,8.90
2023-05-15T00:25:25.557Z,8.80
2023-05-15T00:27:52.903Z,8.80
2023-05-15T00:30:20.006Z,8.80
2023-05-15T00:32:47.369Z,8.80
2023-05-15T00:35:14.562Z,8.80
2023-05-15T00:37:41.786Z,8.80
2023-05-15T00:40:13.011Z,8.80
2023-05-15T00:42:40.666Z,8.70
2023-05-15T00:45:10.617Z,8.60
2023-05-15T00:47:40.573Z,8.50
2023-05-15T00:50:10.065Z,8.50
2023-05-15T00:52:38.416Z,8.40
2023-05-15T00:55:06.692Z,8.30
2023-05-15T00:57:34.454Z,8.30
2023-05-15T01:00:07.151Z,8.30
2023-05-15T01:02:34.362Z,8.30
2023-05-15T01:05:01.466Z,8.40
2023-05-15T01:07:34.276Z,8.30
2023-05-15T01:10:04.387Z,8.30
2023-05-15T01:12:32.882Z,8.40
2023-05-15T01:15:00.055Z,8.40
2023-05-15T01:17:28.342Z,8.30
2023-05-15T01:19:58.527Z,8.20
2023-05-15T01:22:54.701Z,8.10
2023-05-15T01:26:14.365Z,8.10
2023-05-15T01:28:51.956Z,8.20
2023-05-15T01:31:24.649Z,8.20
2023-05-15T01:33:56.596Z,8.30
2023-05-15T01:36:39.516Z,8.30
2023-05-15T01:39:08.645Z,8.30
2023-05-15T01:41:42.856Z,8.30
2023-05-15T01:44:21.679Z,8.30
2023-05-15T01:46:56.144Z,8.40
2023-05-15T01:49:27.598Z,8.50
2023-05-15T01:52:11.061Z,8.60
2023-05-15T01:54:39.966Z,8.60
2023-05-15T01:57:09.357Z,8.60
2023-05-15T01:59:37.508Z,8.60
2023-05-15T02:02:08.177Z,8.70
2023-05-15T02:04:37.142Z,8.60
2023-05-15T02:07:05.250Z,8.60
2023-05-15T02:09:36.096Z,8.70
2023-05-15T02:12:03.826Z,8.70
2023-05-15T02:14:31.600Z,8.60
2023-05-15T02:16:58.909Z,8.60
2023-05-15T02:19:27.519Z,8.60
2023-05-15T02:21:54.732Z,8.50
2023-05-15T02:24:21.838Z,8.60
2023-05-15T02:27:16.412Z,8.60
2023-05-15T02:30:14.203Z,8.60
2023-05-15T02:33:01.182Z,8.60
2023-05-15T02:35:59.944Z,8.70
2023-05-15T02:38:38.045Z,8.70
2023-05-15T02:41:06.357Z,8.70
2023-05-15T02:43:36.219Z,8.80
2023-05-15T02:46:04.393Z,8.80
2023-05-15T02:48:31.817Z,8.80
2023-05-15T02:50:59.468Z,8.80
2023-05-15T02:53:26.846Z,8.70
2023-05-15T02:55:54.056Z,8.70
2023-05-15T02:58:21.222Z,8.60
2023-05-15T03:00:48.430Z,8.60
2023-05-15T03:03:15.531Z,8.60
2023-05-15T03:05:42.691Z,8.60
2023-05-15T03:08:09.751Z,8.60
2023-05-15T03:10:36.854Z,8.60
2023-05-15T03:13:04.046Z,8.60
2023-05-15T03:15:31.219Z,8.60
2023-05-15T03:17:58.339Z,8.60
2023-05-15T03:20:25.646Z,8.50
2023-05-15T03:22:52.798Z,8.50
2023-05-15T03:25:20.038Z,8.40
2023-05-15T03:27:47.127Z,8.30
2023-05-15T03:30:14.435Z,8.30
2023-05-15T03:32:41.536Z,8.30
2023-05-15T03:35:09.678Z,8.30
2023-05-15T03:37:36.731Z,8.30
2023-05-15T03:40:04.921Z,8.30
2023-05-15T03:42:32.018Z,8.30
2023-05-15T03:44:59.332Z,8.40
2023-05-15T03:47:26.468Z,8.40
2023-05-15T03:49:53.741Z,8.40
2023-05-15T03:52:21.013Z,8.40
2023-05-15T03:54:48.439Z,8.40
2023-05-15T03:57:15.629Z,8.40
2023-05-15T03:59:42.771Z,8.40
2023-05-15T04:02:10.451Z,8.40
2023-05-15T04:04:38.681Z,8.30
2023-05-15T04:07:06.256Z,8.30
2023-05-15T04:09:33.318Z,8.20
2023-05-15T04:12:00.358Z,8.10
2023-05-15T04:14:27.531Z,8.10
2023-05-15T04:16:54.564Z,8.20
2023-05-15T04:19:21.872Z,8.20
2023-05-15T04:21:48.964Z,8.30
2023-05-15T04:24:16.132Z,8.30
2023-05-15T04:26:43.418Z,8.30
2023-05-15T04:29:10.641Z,8.30
2023-05-15T04:31:38.572Z,8.30
2023-05-15T04:34:06.028Z,8.20
2023-05-15T04:36:33.571Z,8.10
2023-05-15T04:39:00.954Z,8.20
2023-05-15T04:41:28.063Z,8.30
2023-05-15T04:43:55.388Z,8.30
2023-05-15T04:46:22.451Z,8.30
2023-05-15T04:48:49.724Z,8.40
2023-05-15T04:51:16.780Z,8.40
2023-05-15T04:53:43.980Z,8.40
2023-05-15T04:56:11.302Z,8.40
2023-05-15T04:58:38.356Z,8.40
2023-05-15T05:01:05.593Z,8.40
2023-05-15T05:03:32.917Z,8.40
2023-05-15T05:06:01.093Z,8.40
2023-05-15T05:08:28.346Z,8.50
2023-05-15T05:10:57.532Z,8.50
2023-05-15T05:13:24.711Z,8.50
2023-05-15T05:15:51.992Z,8.30
2023-05-15T05:18:19.180Z,8.40
2023-05-15T05:20:46.329Z,8.40
2023-05-15T05:23:15.094Z,8.30
2023-05-15T05:25:44.479Z,8.30
2023-05-15T05:28:11.655Z,8.30
2023-05-15T05:30:38.706Z,8.10
2023-05-15T05:33:06.482Z,8.20
2023-05-15T05:35:33.622Z,8.30
2023-05-15T05:38:01.147Z,8.30
2023-05-15T05:40:28.256Z,8.40
2023-05-15T05:42:55.434Z,8.50
2023-05-15T05:45:22.515Z,8.60
2023-05-15T05:47:49.767Z,8.60
2023-05-15T05:50:16.969Z,8.60
2023-05-15T05:52:44.047Z,8.60
2023-05-15T05:55:11.176Z,8.50
2023-05-15T05:57:38.535Z,8.60
2023-05-15T06:00:09.038Z,8.50
2023-05-15T06:02:37.388Z,8.50
2023-05-15T06:05:06.455Z,8.50
2023-05-15T06:07:35.182Z,8.60
2023-05-15T06:10:02.815Z,8.70
2023-05-15T06:12:29.994Z,8.70
2023-05-15T06:14:57.089Z,8.70
2023-05-15T06:17:24.281Z,8.70
2023-05-15T06:19:51.550Z,8.80
2023-05-15T06:22:18.645Z,8.90
2023-05-15T06:24:45.993Z,9.00
2023-05-15T06:27:13.095Z,9.00
2023-05-15T06:29:40.303Z,9.10
2023-05-15T06:32:07.864Z,9.20
2023-05-15T06:34:35.417Z,9.20
2023-05-15T06:37:02.664Z,9.20
2023-05-15T06:39:29.742Z,9.20
2023-05-15T06:42:01.268Z,9.00
2023-05-15T06:44:31.448Z,8.90
2023-05-15T06:46:59.240Z,9.00
2023-05-15T06:49:27.218Z,9.10
2023-05-15T06:51:57.261Z,9.30
2023-05-15T06:54:24.402Z,9.40
2023-05-15T06:56:51.517Z,9.30
2023-05-15T06:59:18.623Z,9.20
2023-05-15T07:01:45.891Z,9.30
2023-05-15T07:04:16.013Z,9.30
2023-05-15T07:06:43.631Z,9.20
2023-05-15T07:09:10.720Z,9.30
2023-05-15T07:11:38.897Z,9.30
2023-05-15T07:14:07.043Z,9.50
2023-05-15T07:16:34.077Z,9.50
2023-05-15T07:19:01.721Z,9.50
2023-05-15T07:21:28.996Z,9.50
2023-05-15T07:23:56.124Z,9.40
2023-05-15T07:26:32.873Z,9.50
2023-05-15T07:29:04.257Z,9.50
2023-05-15T07:31:32.123Z,9.40
2023-05-15T07:33:59.336Z,9.40
2023-05-15T07:36:26.437Z,9.30
2023-05-15T07:38:53.564Z,9.30
2023-05-15T07:41:20.879Z,9.30
2023-05-15T07:43:48.114Z,9.50
2023-05-15T07:46:15.520Z,9.70
2023-05-15T07:48:42.728Z,10.00
2023-05-15T07:51:10.003Z,10.20
2023-05-15T07:53:37.153Z,10.40
2023-05-15T07:56:04.594Z,10.80
2023-05-15T07:58:32.011Z,10.90
2023-05-15T08:00:59.085Z,11.20
2023-05-15T08:03:26.306Z,11.00
2023-05-15T08:05:53.515Z,11.30
2023-05-15T08:08:20.673Z,11.50
2023-05-15T08:10:51.455Z,11.80
2023-05-15T08:13:25.898Z,11.50
2023-05-15T08:16:08.478Z,11.20
2023-05-15T08:18:56.017Z,11.20
2023-05-15T08:21:36.189Z,11.20
2023-05-15T08:24:16.546Z,11.20
2023-05-15T08:26:47.978Z,11.10
2023-05-15T08:29:24.377Z,11.00
2023-05-15T08:31:53.999Z,11.00
2023-05-15T08:34:23.632Z,11.00
2023-05-15T08:37:00.268Z,11.10
2023-05-15T08:39:29.802Z,11.30
2023-05-15T08:42:25.714Z,11.50
2023-05-15T08:44:53.482Z,11.60
2023-05-15T08:47:21.056Z,11.90
2023-05-15T08:50:14.059Z,12.00
2023-05-15T08:53:02.094Z,12.10
2023-05-15T08:55:29.258Z,12.10
2023-05-15T08:57:56.613Z,12.20
2023-05-15T09:00:23.996Z,12.40
2023-05-15T09:02:51.261Z,12.50
2023-05-15T09:05:18.560Z,12.50
2023-05-15T09:07:50.613Z,12.50
2023-05-15T09:10:21.948Z,12.60
2023-05-15T09:13:07.646Z,12.70
2023-05-15T09:15:50.052Z,12.80
2023-05-15T09:18:21.277Z,12.90
2023-05-15T09:20:52.091Z,13.00
2023-05-15T09:23:27.989Z,13.00
2023-05-15T09:26:05.322Z,13.10
2023-05-15T09:28:35.845Z,13.00
2023-05-15T09:31:07.021Z,12.90
2023-05-15T09:33:39.200Z,12.70
2023-05-15T09:36:13.526Z,12.80
2023-05-15T09:38:52.989Z,12.70
2023-05-15T09:41:26.883Z,12.70
2023-05-15T09:44:05.259Z,12.90
2023-05-15T09:46:37.447Z,13.30
2023-05-15T09:49:04.920Z,13.50
2023-05-15T09:51:40.761Z,13.70
2023-05-15T09:54:20.816Z,13.80
2023-05-15T09:56:49.851Z,14.00
2023-05-15T09:59:24.564Z,14.00
2023-05-15T10:01:55.538Z,14.00
2023-05-15T10:04:22.831Z,14.00
2023-05-15T10:06:50.120Z,14.10
2023-05-15T10:09:17.490Z,14.40
2023-05-15T10:11:53.330Z,14.50
2023-05-15T10:14:25.432Z,14.50
2023-05-15T10:16:55.893Z,14.30
2023-05-15T10:19:28.963Z,14.30
2023-05-15T10:21:59.634Z,14.30
2023-05-15T10:24:31.378Z,14.40
2023-05-15T10:27:05.113Z,14.40
2023-05-15T10:29:33.333Z,14.30
2023-05-15T10:32:01.776Z,14.10
2023-05-15T10:34:29.869Z,14.10
2023-05-15T10:37:00.769Z,14.30
2023-05-15T10:39:29.346Z,14.30
2023-05-15T10:41:57.933Z,14.20
2023-05-15T10:44:25.482Z,14.10
2023-05-15T10:47:04.464Z,14.10
2023-05-15T10:49:48.429Z,14.20
2023-05-15T10:52:16.537Z,14.50
2023-05-15T10:54:43.908Z,14.80
2023-05-15T10:57:13.792Z,15.00
2023-05-15T10:59:45.379Z,15.10
2023-05-15T11:02:35.913Z,15.10
2023-05-15T11:05:11.473Z,14.90
2023-05-15T11:07:38.984Z,14.80
2023-05-15T11:10:30.126Z,14.90
2023-05-15T11:12:58.942Z,15.10
2023-05-15T11:15:26.075Z,15.20
2023-05-15T11:18:09.004Z,15.10
2023-05-15T11:21:03.056Z,15.20
2023-05-15T11:23:40.153Z,15.30
2023-05-15T11:26:07.340Z,15.20
2023-05-15T11:28:43.797Z,15.20
2023-05-15T11:31:11.076Z,15.20
2023-05-15T11:33:40.636Z,15.20
2023-05-15T11:36:08.866Z,15.20
2023-05-15T11:38:40.102Z,15.30
2023-05-15T11:41:22.156Z,15.40
2023-05-15T11:43:50.369Z,15.10
2023-05-15T11:46:17.677Z,15.10
2023-05-15T11:48:50.133Z,15.10
2023-05-15T11:51:21.799Z,15.00
2023-05-15T11:53:55.309Z,14.90
2023-05-15T11:56:28.513Z,14.90
2023-05-15T11:58:58.387Z,14.70
2023-05-15T12:01:26.082Z,14.70
2023-05-15T12:03:56.604Z,14.60
2023-05-15T12:06:24.413Z,14.80
2023-05-15T12:08:53.205Z,15.10
2023-05-15T12:11:24.715Z,15.10
2023-05-15T12:13:56.520Z,14.80
2023-05-15T12:16:27.536Z,14.40
2023-05-15T12:18:57.825Z,14.10
2023-05-15T12:21:27.581Z,14.00
2023-05-15T12:24:07.516Z,14.00
2023-05-15T12:26:36.229Z,14.00
2023-05-15T12:29:05.059Z,14.40
2023-05-15T12:31:35.113Z,14.60
2023-05-15T12:34:02.465Z,14.70
2023-05-15T12:36:32.488Z,14.50
2023-05-15T12:39:06.409Z,14.40
2023-05-15T12:41:33.712Z,14.30
2023-05-15T12:44:00.799Z,14.10
2023-05-15T12:46:32.118Z,13.70
2023-05-15T12:48:59.866Z,13.50
2023-05-15T12:51:29.805Z,13.30
2023-05-15T12:53:59.983Z,13.20
2023-05-15T12:56:29.934Z,13.20
2023-05-15T12:58:57.416Z,13.20
2023-05-15T13:01:26.513Z,13.10
2023-05-15T13:03:54.035Z,13.10
2023-05-15T13:06:23.834Z,13.00
2023-05-15T13:08:54.136Z,13.10
2023-05-15T13:11:22.441Z,13.20
2023-05-15T13:13:50.509Z,13.20
2023-05-15T13:16:26.838Z,13.20
2023-05-15T13:18:54.905Z,13.30
2023-05-15T13:21:31.152Z,13.00
2023-05-15T13:23:59.301Z,12.90
2023-05-15T13:26:26.504Z,12.70
2023-05-15T13:28:53.675Z,12.40
2023-05-15T13:31:21.101Z,12.30
2023-05-15T13:33:48.929Z,12.30
2023-05-15T13:36:17.156Z,12.20
2023-05-15T13:38:44.249Z,12.30
2023-05-15T13:41:11.365Z,12.20
2023-05-15T13:43:38.589Z,12.20
2023-05-15T13:46:05.749Z,12.20
2023-05-15T13:48:32.824Z,12.10
2023-05-15T13:50:59.889Z,12.10
2023-05-15T13:53:27.175Z,12.10
2023-05-15T13:55:54.308Z,12.10
2023-05-15T13:58:21.580Z,12.20
2023-05-15T14:00:48.845Z,12.10
2023-05-15T14:03:16.213Z,12.10
2023-05-15T14:05:43.331Z,12.10
2023-05-15T14:08:11.086Z,12.20
2023-05-15T14:10:38.218Z,12.30
2023-05-15T14:13:05.459Z,12.30
2023-05-15T14:15:32.508Z,12.20
2023-05-15T14:17:59.694Z,12.00
2023-05-15T14:20:27.135Z,11.90
2023-05-15T14:22:54.433Z,11.80
2023-05-15T14:25:21.680Z,11.70
2023-05-15T14:27:48.765Z,11.70
2023-05-15T14:30:15.948Z,11.60
2023-05-15T14:32:43.078Z,11.60
2023-05-15T14:35:10.201Z,11.70
2023-05-15T14:37:37.688Z,11.80
2023-05-15T14:40:05.743Z,11.90
2023-05-15T14:42:32.903Z,11.90
2023-05-15T14:45:00.200Z,11.90
2023-05-15T14:47:28.538Z,11.90
2023-05-15T14:49:56.025Z,12.10
2023-05-15T14:52:23.240Z,12.30
2023-05-15T14:55:00.640Z,12.40
2023-05-15T14:57:34.852Z,12.30
2023-05-15T15:00:02.179Z,12.20
2023-05-15T15:02:29.455Z,12.20
2023-05-15T15:04:57.586Z,12.20
2023-05-15T15:07:30.750Z,12.30
2023-05-15T15:09:57.862Z,12.20
2023-05-15T15:12:24.956Z,12.10
2023-05-15T15:14:52.090Z,11.80
2023-05-15T15:17:19.164Z,11.70
2023-05-15T15:19:46.293Z,11.60
2023-05-15T15:22:13.360Z,11.70
2023-05-15T15:24:40.534Z,11.90
2023-05-15T15:27:07.681Z,11.90
2023-05-15T15:29:34.754Z,11.80
2023-05-15T15:32:01.839Z,11.70
2023-05-15T15:34:29.006Z,11.50
2023-05-15T15:36:56.719Z,11.30
2023-05-15T15:39:23.830Z,11.30
2023-05-15T15:41:50.972Z,11.20
2023-05-15T15:44:18.152Z,11.40
2023-05-15T15:46:45.367Z,11.30
2023-05-15T15:49:12.484Z,11.30
2023-05-15T15:51:41.171Z,11.30
2023-05-15T15:54:08.362Z,11.40
2023-05-15T15:56:35.977Z,11.60
2023-05-15T15:59:04.079Z,11.70
2023-05-15T16:01:31.280Z,11.70
2023-05-15T16:03:58.600Z,11.70
2023-05-15T16:06:25.853Z,11.70
2023-05-15T16:08:52.940Z,11.80
2023-05-15T16:11:20.004Z,11.50
2023-05-15T16:13:47.099Z,11.40
2023-05-15T16:16:14.259Z,11.40
2023-05-15T16:18:41.434Z,11.40
2023-05-15T16:21:08.759Z,11.40
2023-05-15T16:23:37.755Z,11.40
2023-05-15T16:26:06.161Z,11.30
2023-05-15T16:28:33.213Z,11.40
2023-05-15T16:31:02.635Z,11.40
2023-05-15T16:33:31.681Z,11.60
2023-05-15T16:35:58.761Z,11.80
2023-05-15T16:38:25.855Z,11.80
2023-05-15T16:40:52.869Z,11.60
2023-05-15T16:43:21.879Z,11.50
2023-05-15T16:45:48.981Z,11.40
2023-05-15T16:48:16.379Z,11.30
2023-05-15T16:50:43.478Z,11.30
2023-05-15T16:53:10.719Z,11.30
2023-05-15T16:55:38.618Z,11.30
2023-05-15T16:58:05.747Z,11.30
2023-05-15T17:00:32.823Z,11.40
2023-05-15T17:03:00.082Z,11.40
2023-05-15T17:05:27.449Z,11.30
2023-05-15T17:07:54.518Z,11.30
2023-05-15T17:10:21.754Z,11.30
2023-05-15T17:12:48.879Z,11.00
2023-05-15T17:15:15.946Z,11.00
2023-05-15T17:17:43.077Z,10.90
2023-05-15T17:20:11.297Z,11.00
2023-05-15T17:22:39.801Z,10.90
2023-05-15T17:25:08.283Z,10.90
2023-05-15T17:27:41.618Z,10.80
2023-05-15T17:30:11.563Z,10.80
2023-05-15T17:32:39.837Z,10.70
2023-05-15T17:35:08.255Z,10.70
2023-05-15T17:37:35.391Z,10.60
2023-05-15T17:40:02.472Z,10.50
2023-05-15T17:42:29.858Z,10.40
2023-05-15T17:44:57.226Z,10.30
2023-05-15T17:47:24.465Z,10.30
2023-05-15T17:49:51.598Z,10.30
2023-05-15T17:52:18.718Z,10.30
2023-05-15T17:54:46.080Z,10.40
2023-05-15T17:57:13.249Z,10.30
2023-05-15T17:59:40.362Z,10.30
2023-05-15T18:02:07.668Z,10.20
2023-05-15T18:04:34.801Z,10.10
2023-05-15T18:07:01.874Z,10.10
2023-05-15T18:09:29.701Z,10.20
2023-05-15T18:11:56.809Z,10.20
2023-05-15T18:14:23.918Z,10.20
2023-05-15T18:16:51.332Z,10.10
2023-05-15T18:19:19.099Z,10.10
2023-05-15T18:21:46.376Z,10.00
2023-05-15T18:24:13.739Z,9.90
2023-05-15T18:26:41.031Z,9.80
2023-05-15T18:29:08.221Z,9.70
2023-05-15T18:31:36.313Z,9.70
2023-05-15T18:34:03.417Z,9.60
2023-05-15T18:36:30.786Z,9.60
2023-05-15T18:38:57.928Z,9.60
2023-05-15T18:41:27.160Z,9.60
2023-05-15T18:43:54.265Z,9.50
2023-05-15T18:46:21.532Z,9.60
2023-05-15T18:48:48.722Z,9.60
2023-05-15T18:51:16.183Z,9.70
2023-05-15T18:53:43.282Z,9.70
2023-05-15T18:56:10.770Z,9.60
2023-05-15T18:58:37.831Z,9.70
2023-05-15T19:01:04.980Z,9.70
2023-05-15T19:03:36.312Z,9.60
2023-05-15T19:06:03.550Z,9.60
2023-05-15T19:08:30.663Z,9.50
2023-05-15T19:11:00.615Z,9.60
2023-05-15T19:13:32.584Z,9.60
2023-05-15T19:16:01.872Z,9.50
2023-05-15T19:18:29.099Z,9.60
2023-05-15T19:20:56.790Z,9.60
2023-05-15T19:23:24.727Z,9.50
2023-05-15T19:25:52.487Z,9.50
2023-05-15T19:28:19.687Z,9.40
2023-05-15T19:30:46.913Z,9.40
2023-05-15T19:33:16.266Z,9.40
2023-05-15T19:35:44.352Z,9.40
2023-05-15T19:38:11.885Z,9.40
2023-05-15T19:40:45.326Z,9.40
2023-05-15T19:43:14.161Z,9.40
2023-05-15T19:45:42.861Z,9.30
2023-05-15T19:48:10.461Z,9.30
2023-05-15T19:50:40.952Z,9.30
2023-05-15T19:53:08.450Z,9.30
2023-05-15T19:55:35.946Z,9.40
2023-05-15T19:58:03.142Z,9.30
2023-05-15T20:00:30.759Z,9.30
2023-05-15T20:02:57.869Z,9.30
2023-05-15T20:05:25.106Z,9.30
2023-05-15T20:07:53.067Z,9.30
2023-05-15T20:10:21.024Z,9.30
2023-05-15T20:12:48.816Z,9.40
2023-05-15T20:15:16.837Z,9.20
2023-05-15T20:17:44.202Z,9.20
2023-05-15T20:20:12.395Z,9.20
2023-05-15T20:22:43.848Z,9.20
2023-05-15T20:25:11.311Z,9.10
2023-05-15T20:27:38.877Z,9.10
2023-05-15T20:30:07.228Z,9.20
2023-05-15T20:32:34.712Z,9.20
2023-05-15T20:35:03.053Z,9.20
2023-05-15T20:37:33.573Z,9.20
2023-05-15T20:40:00.881Z,9.10
2023-05-15T20:42:34.469Z,9.20
2023-05-15T20:45:01.798Z,9.20
2023-05-15T20:47:28.939Z,9.20
2023-05-15T20:49:56.556Z,9.20
2023-05-15T20:52:23.708Z,9.20
2023-05-15T20:54:51.090Z,9.20
2023-05-15T20:57:18.112Z,9.20
2023-05-15T20:59:45.361Z,9.20
2023-05-15T21:02:12.386Z,9.20
2023-05-15T21:04:39.515Z,9.20
2023-05-15T21:07:07.273Z,9.20
2023-05-15T21:09:34.398Z,9.20
2023-05-15T21:12:01.501Z,9.20
2023-05-15T21:14:28.625Z,9.20
2023-05-15T21:16:55.802Z,9.20
2023-05-15T21:19:23.031Z,9.10
2023-05-15T21:21:50.175Z,9.10
2023-05-15T21:24:17.455Z,9.10
2023-05-15T21:26:44.823Z,9.10
2023-05-15T21:29:12.015Z,9.10
2023-05-15T21:31:39.186Z,9.10
2023-05-15T21:34:07.128Z,9.00
2023-05-15T21:36:35.013Z,9.00
2023-05-15T21:39:02.212Z,9.00
2023-05-15T21:41:29.357Z,9.10
2023-05-15T21:43:56.458Z,9.10
2023-05-15T21:46:23.722Z,9.00
2023-05-15T21:48:50.840Z,9.00
2023-05-15T21:51:18.075Z,9.00
2023-05-15T21:53:45.360Z,8.90
2023-05-15T21:56:12.475Z,8.90
2023-05-15T21:58:39.580Z,8.90
2023-05-15T22:01:06.740Z,8.80
2023-05-15T22:03:34.149Z,8.80
2023-05-15T22:06:01.310Z,8.90
2023-05-15T22:08:28.398Z,8.80
2023-05-15T22:10:55.752Z,8.80
2023-05-15T22:13:22.822Z,8.80
2023-05-15T22:15:49.996Z,8.80
2023-05-15T22:18:17.061Z,8.80
2023-05-15T22:20:45.069Z,8.80
2023-05-15T22:23:12.301Z,8.80
2023-05-15T22:25:39.370Z,8.80
2023-05-15T22:28:06.564Z,8.80
2023-05-15T22:30:33.697Z,8.90
2023-05-15T22:33:00.878Z,8.90
2023-05-15T22:35:28.524Z,8.80
2023-05-15T22:37:55.755Z,8.80
2023-05-15T22:40:22.939Z,8.80
2023-05-15T22:42:50.324Z,8.70
2023-05-15T22:45:18.614Z,8.70
2023-05-15T22:47:46.225Z,8.70
2023-05-15T22:50:13.758Z,8.70
2023-05-15T22:52:41.019Z,8.70
2023-05-15T22:55:10.375Z,8.80
2023-05-15T22:57:37.611Z,8.70
2023-05-15T23:00:07.187Z,8.70
2023-05-15T23:02:34.361Z,8.70
2023-05-15T23:05:01.786Z,8.60
2023-05-15T23:07:28.940Z,8.60
2023-05-15T23:09:56.367Z,8.60
2023-05-15T23:12:23.488Z,8.60
2023-05-15T23:14:50.674Z,8.60
2023-05-15T23:17:17.785Z,8.60
2023-05-15T23:19:44.883Z,8.60
2023-05-15T23:22:12.390Z,8.60
2023-05-15T23:24:39.574Z,8.50
2023-05-15T23:27:06.685Z,8.50
2023-05-15T23:29:33.986Z,8.40
2023-05-15T23:32:01.149Z,8.40
2023-05-15T23:34:28.952Z,8.30
2023-05-15T23:36:56.048Z,8.30
2023-05-15T23:39:23.168Z,8.20
2023-05-15T23:41:50.350Z,8.20
2023-05-15T23:44:17.478Z,8.10
2023-05-15T23:46:44.595Z,8.00
2023-05-15T23:49:11.710Z,8.00
2023-05-15T23:51:39.089Z,8.00
2023-05-15T23:54:06.259Z,8.00
2023-05-15T23:56:33.400Z,8.00
2023-05-15T23:59:01.118Z,8.00
